Accueil
METAR-TAF:

METAR-TAF

Aéroports :

Nouakchott, Mauritanie

Aéroport international de Nouakchott-Oumtounsy

latitude: 18-18-36N, longitude: 015-58-11W, altitude: 3 m

Observation

Le bulletin a été fait il y a 31 minutes, à 03:00 UTC
Vent 12 kt de nord/nord-ouest
Température 18°C
Humidité 94%
Pression 1013 hPa
Visibilité: 7000 m

METAR: GQNO 260300Z 33012KT 7000 NSC 18/17 Q1013 NOSIG

Heure: 03:31 (03:31 UTC)

Prévision

Le bulletin a été fait il y a 4 heures et 31 minutes, à 23:00 UTC
Prévision valable du 26 à 00 UTC au 27 à 06 UTC
Vent 10 kt de nord
Visibilité: 7000 m

TAF: GQNO 252300Z 2600/2706 36010KT 7000 NSC

Observations et prévisions météorologiques de plus de 4000 aéroports (messages METAR et TAF).

Les stations disponibles sont représentées par des disques jaunes et rouges sur la carte.

Passer la souris dessus pour voir le nom de la station.

Cliquer dessus pour voir les observations et prévisions météorologiques.

Pour changer de carte: cliquez sur les boutons verts avec une croix noire pour zoomer, sur le bouton vert avec un tiret pour effectuer un zoom arrière, ou sur les flèches vertes pour les cartes adjacentes.


METAR-TAF: